sensor_id;sensor_type;location;lat;lon;timestamp;P1;durP1;ratioP1;P2;durP2;ratioP2
6013;SDS011;3035;49.928;8.410;2022-11-20T00:00:35;24.07;;;13.50;;
6013;SDS011;3035;49.928;8.410;2022-11-20T00:03:03;23.33;;;13.30;;
6013;SDS011;3035;49.928;8.410;2022-11-20T00:05:32;23.60;;;13.53;;
6013;SDS011;3035;49.928;8.410;2022-11-20T00:08:00;23.03;;;12.63;;
6013;SDS011;3035;49.928;8.410;2022-11-20T00:10:29;20.33;;;11.97;;
6013;SDS011;3035;49.928;8.410;2022-11-20T00:12:58;23.90;;;14.70;;
6013;SDS011;3035;49.928;8.410;2022-11-20T00:15:27;26.37;;;13.03;;
6013;SDS011;3035;49.928;8.410;2022-11-20T00:17:55;29.13;;;14.80;;
6013;SDS011;3035;49.928;8.410;2022-11-20T00:20:24;23.53;;;12.17;;
6013;SDS011;3035;49.928;8.410;2022-11-20T00:22:52;21.83;;;12.23;;
6013;SDS011;3035;49.928;8.410;2022-11-20T00:25:21;20.60;;;13.23;;
6013;SDS011;3035;49.928;8.410;2022-11-20T00:27:50;23.97;;;12.63;;
6013;SDS011;3035;49.928;8.410;2022-11-20T00:30:18;26.27;;;13.67;;
6013;SDS011;3035;49.928;8.410;2022-11-20T00:32:46;24.37;;;13.07;;
6013;SDS011;3035;49.928;8.410;2022-11-20T00:35:15;23.93;;;13.33;;
6013;SDS011;3035;49.928;8.410;2022-11-20T00:37:43;24.70;;;13.20;;
6013;SDS011;3035;49.928;8.410;2022-11-20T00:40:12;23.10;;;13.47;;
6013;SDS011;3035;49.928;8.410;2022-11-20T00:42:41;21.33;;;12.57;;
6013;SDS011;3035;49.928;8.410;2022-11-20T00:45:10;24.47;;;12.67;;
6013;SDS011;3035;49.928;8.410;2022-11-20T00:47:38;26.73;;;13.40;;
6013;SDS011;3035;49.928;8.410;2022-11-20T00:50:07;22.37;;;12.30;;
6013;SDS011;3035;49.928;8.410;2022-11-20T00:52:36;24.70;;;12.60;;
6013;SDS011;3035;49.928;8.410;2022-11-20T00:55:04;22.23;;;12.73;;
6013;SDS011;3035;49.928;8.410;2022-11-20T00:57:34;26.10;;;13.90;;
6013;SDS011;3035;49.928;8.410;2022-11-20T01:00:02;22.33;;;13.73;;
6013;SDS011;3035;49.928;8.410;2022-11-20T01:02:33;28.50;;;14.33;;
6013;SDS011;3035;49.928;8.410;2022-11-20T01:05:02;22.33;;;13.30;;
6013;SDS011;3035;49.928;8.410;2022-11-20T01:07:32;28.63;;;12.43;;
6013;SDS011;3035;49.928;8.410;2022-11-20T01:10:00;27.67;;;14.93;;
6013;SDS011;3035;49.928;8.410;2022-11-20T01:12:29;30.00;;;13.90;;
6013;SDS011;3035;49.928;8.410;2022-11-20T01:14:58;23.40;;;13.17;;
6013;SDS011;3035;49.928;8.410;2022-11-20T01:17:27;24.80;;;14.50;;
6013;SDS011;3035;49.928;8.410;2022-11-20T01:19:55;27.07;;;14.67;;
6013;SDS011;3035;49.928;8.410;2022-11-20T01:22:23;31.40;;;14.37;;
6013;SDS011;3035;49.928;8.410;2022-11-20T01:24:52;22.77;;;13.53;;
6013;SDS011;3035;49.928;8.410;2022-11-20T01:27:20;28.73;;;14.53;;
6013;SDS011;3035;49.928;8.410;2022-11-20T01:29:49;26.50;;;13.77;;
6013;SDS011;3035;49.928;8.410;2022-11-20T01:32:20;23.20;;;13.10;;
6013;SDS011;3035;49.928;8.410;2022-11-20T01:34:48;24.37;;;13.50;;
6013;SDS011;3035;49.928;8.410;2022-11-20T01:37:17;26.00;;;14.07;;
6013;SDS011;3035;49.928;8.410;2022-11-20T01:39:45;27.60;;;14.80;;
6013;SDS011;3035;49.928;8.410;2022-11-20T01:42:13;24.30;;;13.97;;
6013;SDS011;3035;49.928;8.410;2022-11-20T01:44:51;29.47;;;15.20;;
6013;SDS011;3035;49.928;8.410;2022-11-20T01:47:30;31.43;;;13.80;;
6013;SDS011;3035;49.928;8.410;2022-11-20T01:50:04;27.17;;;15.00;;
6013;SDS011;3035;49.928;8.410;2022-11-20T01:52:34;28.13;;;15.70;;
6013;SDS011;3035;49.928;8.410;2022-11-20T01:55:04;30.27;;;13.77;;
6013;SDS011;3035;49.928;8.410;2022-11-20T01:57:34;21.37;;;12.50;;
6013;SDS011;3035;49.928;8.410;2022-11-20T02:00:05;23.90;;;13.40;;
6013;SDS011;3035;49.928;8.410;2022-11-20T02:02:35;25.20;;;14.17;;
6013;SDS011;3035;49.928;8.410;2022-11-20T02:05:06;25.60;;;13.50;;
6013;SDS011;3035;49.928;8.410;2022-11-20T02:07:53;27.90;;;14.03;;
6013;SDS011;3035;49.928;8.410;2022-11-20T02:10:22;30.97;;;14.50;;
6013;SDS011;3035;49.928;8.410;2022-11-20T02:12:50;30.10;;;15.70;;
6013;SDS011;3035;49.928;8.410;2022-11-20T02:15:25;25.90;;;15.27;;
6013;SDS011;3035;49.928;8.410;2022-11-20T02:17:54;25.07;;;14.87;;
6013;SDS011;3035;49.928;8.410;2022-11-20T02:20:22;28.40;;;14.63;;
6013;SDS011;3035;49.928;8.410;2022-11-20T02:22:53;32.73;;;14.77;;
6013;SDS011;3035;49.928;8.410;2022-11-20T02:25:20;27.60;;;15.40;;
6013;SDS011;3035;49.928;8.410;2022-11-20T02:27:48;27.40;;;15.33;;
6013;SDS011;3035;49.928;8.410;2022-11-20T02:30:18;29.47;;;14.97;;
6013;SDS011;3035;49.928;8.410;2022-11-20T02:32:46;26.57;;;14.93;;
6013;SDS011;3035;49.928;8.410;2022-11-20T02:38:07;23.97;;;14.63;;
6013;SDS011;3035;49.928;8.410;2022-11-20T02:40:35;36.30;;;16.80;;
6013;SDS011;3035;49.928;8.410;2022-11-20T02:43:03;29.00;;;14.97;;
6013;SDS011;3035;49.928;8.410;2022-11-20T02:45:31;26.63;;;14.77;;
6013;SDS011;3035;49.928;8.410;2022-11-20T02:48:00;28.93;;;14.60;;
6013;SDS011;3035;49.928;8.410;2022-11-20T02:50:29;30.60;;;16.13;;
6013;SDS011;3035;49.928;8.410;2022-11-20T02:52:58;30.83;;;15.10;;
6013;SDS011;3035;49.928;8.410;2022-11-20T02:55:27;27.07;;;13.53;;
6013;SDS011;3035;49.928;8.410;2022-11-20T02:57:55;29.00;;;14.80;;
6013;SDS011;3035;49.928;8.410;2022-11-20T03:00:23;29.40;;;15.23;;
6013;SDS011;3035;49.928;8.410;2022-11-20T03:02:51;30.50;;;15.33;;
6013;SDS011;3035;49.928;8.410;2022-11-20T03:05:20;27.67;;;14.90;;
6013;SDS011;3035;49.928;8.410;2022-11-20T03:07:49;30.40;;;15.23;;
6013;SDS011;3035;49.928;8.410;2022-11-20T03:10:18;26.93;;;15.13;;
6013;SDS011;3035;49.928;8.410;2022-11-20T03:12:46;28.40;;;14.50;;
6013;SDS011;3035;49.928;8.410;2022-11-20T03:15:15;32.13;;;16.10;;
6013;SDS011;3035;49.928;8.410;2022-11-20T03:17:44;28.87;;;15.43;;
6013;SDS011;3035;49.928;8.410;2022-11-20T03:20:12;27.50;;;15.03;;
6013;SDS011;3035;49.928;8.410;2022-11-20T03:22:41;28.07;;;15.30;;
6013;SDS011;3035;49.928;8.410;2022-11-20T03:25:09;32.50;;;16.03;;
6013;SDS011;3035;49.928;8.410;2022-11-20T03:27:37;32.47;;;17.03;;
6013;SDS011;3035;49.928;8.410;2022-11-20T03:30:06;30.23;;;16.30;;
6013;SDS011;3035;49.928;8.410;2022-11-20T03:32:35;31.20;;;14.57;;
6013;SDS011;3035;49.928;8.410;2022-11-20T03:35:03;36.20;;;16.27;;
6013;SDS011;3035;49.928;8.410;2022-11-20T03:37:33;32.17;;;16.00;;
6013;SDS011;3035;49.928;8.410;2022-11-20T03:40:01;31.83;;;15.70;;
6013;SDS011;3035;49.928;8.410;2022-11-20T03:42:31;29.83;;;15.83;;
6013;SDS011;3035;49.928;8.410;2022-11-20T03:45:06;31.27;;;15.70;;
6013;SDS011;3035;49.928;8.410;2022-11-20T03:47:35;34.83;;;17.40;;
6013;SDS011;3035;49.928;8.410;2022-11-20T03:50:04;29.33;;;15.00;;
6013;SDS011;3035;49.928;8.410;2022-11-20T03:52:33;28.07;;;15.20;;
6013;SDS011;3035;49.928;8.410;2022-11-20T03:55:01;29.50;;;14.97;;
6013;SDS011;3035;49.928;8.410;2022-11-20T03:57:31;33.77;;;16.57;;
6013;SDS011;3035;49.928;8.410;2022-11-20T03:59:59;31.80;;;16.23;;
6013;SDS011;3035;49.928;8.410;2022-11-20T04:02:27;30.70;;;15.73;;
6013;SDS011;3035;49.928;8.410;2022-11-20T04:04:55;31.80;;;16.43;;
6013;SDS011;3035;49.928;8.410;2022-11-20T04:07:23;31.37;;;14.60;;
6013;SDS011;3035;49.928;8.410;2022-11-20T04:09:52;31.67;;;16.13;;
6013;SDS011;3035;49.928;8.410;2022-11-20T04:12:20;33.63;;;16.00;;
6013;SDS011;3035;49.928;8.410;2022-11-20T04:14:49;33.13;;;16.50;;
6013;SDS011;3035;49.928;8.410;2022-11-20T04:17:18;28.00;;;14.50;;
6013;SDS011;3035;49.928;8.410;2022-11-20T04:19:46;33.30;;;14.20;;
6013;SDS011;3035;49.928;8.410;2022-11-20T04:22:15;26.90;;;15.00;;
6013;SDS011;3035;49.928;8.410;2022-11-20T04:24:44;24.13;;;13.80;;
6013;SDS011;3035;49.928;8.410;2022-11-20T04:27:12;27.90;;;15.10;;
6013;SDS011;3035;49.928;8.410;2022-11-20T04:29:40;29.00;;;15.73;;
6013;SDS011;3035;49.928;8.410;2022-11-20T04:32:09;26.40;;;13.57;;
6013;SDS011;3035;49.928;8.410;2022-11-20T04:34:37;26.23;;;14.87;;
6013;SDS011;3035;49.928;8.410;2022-11-20T04:37:06;29.37;;;16.00;;
6013;SDS011;3035;49.928;8.410;2022-11-20T04:39:34;28.07;;;14.37;;
6013;SDS011;3035;49.928;8.410;2022-11-20T04:42:02;32.87;;;14.70;;
6013;SDS011;3035;49.928;8.410;2022-11-20T04:44:37;30.53;;;14.13;;
6013;SDS011;3035;49.928;8.410;2022-11-20T04:47:05;28.80;;;15.00;;
6013;SDS011;3035;49.928;8.410;2022-11-20T04:49:33;27.80;;;14.50;;
6013;SDS011;3035;49.928;8.410;2022-11-20T04:52:01;31.00;;;15.17;;
6013;SDS011;3035;49.928;8.410;2022-11-20T04:54:30;26.07;;;13.57;;
6013;SDS011;3035;49.928;8.410;2022-11-20T04:56:58;33.47;;;15.30;;
6013;SDS011;3035;49.928;8.410;2022-11-20T04:59:27;30.40;;;14.83;;
6013;SDS011;3035;49.928;8.410;2022-11-20T05:01:55;30.93;;;15.43;;
6013;SDS011;3035;49.928;8.410;2022-11-20T05:04:23;30.43;;;15.30;;
6013;SDS011;3035;49.928;8.410;2022-11-20T05:06:51;34.63;;;15.83;;
6013;SDS011;3035;49.928;8.410;2022-11-20T05:09:20;32.60;;;15.17;;
6013;SDS011;3035;49.928;8.410;2022-11-20T05:11:48;35.03;;;18.03;;
6013;SDS011;3035;49.928;8.410;2022-11-20T05:14:17;32.37;;;14.97;;
6013;SDS011;3035;49.928;8.410;2022-11-20T05:16:45;37.63;;;15.73;;
6013;SDS011;3035;49.928;8.410;2022-11-20T05:19:13;32.43;;;16.20;;
6013;SDS011;3035;49.928;8.410;2022-11-20T05:21:41;36.90;;;14.53;;
6013;SDS011;3035;49.928;8.410;2022-11-20T05:24:10;33.37;;;17.13;;
6013;SDS011;3035;49.928;8.410;2022-11-20T05:26:39;34.30;;;16.40;;
6013;SDS011;3035;49.928;8.410;2022-11-20T05:29:09;31.13;;;15.10;;
6013;SDS011;3035;49.928;8.410;2022-11-20T05:31:35;33.33;;;15.73;;
6013;SDS011;3035;49.928;8.410;2022-11-20T05:34:04;32.53;;;15.93;;
6013;SDS011;3035;49.928;8.410;2022-11-20T05:36:32;27.60;;;13.80;;
6013;SDS011;3035;49.928;8.410;2022-11-20T05:39:00;31.23;;;14.50;;
6013;SDS011;3035;49.928;8.410;2022-11-20T05:41:29;27.90;;;14.53;;
6013;SDS011;3035;49.928;8.410;2022-11-20T05:43:57;33.97;;;15.77;;
6013;SDS011;3035;49.928;8.410;2022-11-20T05:46:25;29.13;;;14.70;;
6013;SDS011;3035;49.928;8.410;2022-11-20T05:48:54;36.50;;;15.90;;
6013;SDS011;3035;49.928;8.410;2022-11-20T05:51:22;30.20;;;16.13;;
6013;SDS011;3035;49.928;8.410;2022-11-20T05:53:50;33.03;;;16.33;;
6013;SDS011;3035;49.928;8.410;2022-11-20T05:56:19;30.50;;;15.30;;
6013;SDS011;3035;49.928;8.410;2022-11-20T05:58:47;27.33;;;15.03;;
6013;SDS011;3035;49.928;8.410;2022-11-20T06:01:18;29.47;;;14.27;;
6013;SDS011;3035;49.928;8.410;2022-11-20T06:03:47;34.00;;;16.80;;
6013;SDS011;3035;49.928;8.410;2022-11-20T06:06:16;27.30;;;14.80;;
6013;SDS011;3035;49.928;8.410;2022-11-20T06:08:44;34.17;;;16.70;;
6013;SDS011;3035;49.928;8.410;2022-11-20T06:11:12;28.80;;;14.10;;
6013;SDS011;3035;49.928;8.410;2022-11-20T06:13:41;36.43;;;15.67;;
6013;SDS011;3035;49.928;8.410;2022-11-20T06:16:10;33.50;;;17.07;;
6013;SDS011;3035;49.928;8.410;2022-11-20T06:18:37;34.60;;;16.50;;
6013;SDS011;3035;49.928;8.410;2022-11-20T06:21:07;29.53;;;15.50;;
6013;SDS011;3035;49.928;8.410;2022-11-20T06:23:35;30.07;;;14.90;;
6013;SDS011;3035;49.928;8.410;2022-11-20T06:26:04;34.60;;;15.37;;
6013;SDS011;3035;49.928;8.410;2022-11-20T06:28:33;32.27;;;17.10;;
6013;SDS011;3035;49.928;8.410;2022-11-20T06:31:01;33.33;;;15.27;;
6013;SDS011;3035;49.928;8.410;2022-11-20T06:33:29;30.60;;;15.10;;
6013;SDS011;3035;49.928;8.410;2022-11-20T06:35:58;44.20;;;16.93;;
6013;SDS011;3035;49.928;8.410;2022-11-20T06:38:27;35.83;;;14.87;;
6013;SDS011;3035;49.928;8.410;2022-11-20T06:40:55;34.13;;;15.83;;
6013;SDS011;3035;49.928;8.410;2022-11-20T06:43:23;33.47;;;15.80;;
6013;SDS011;3035;49.928;8.410;2022-11-20T06:45:52;34.63;;;15.37;;
6013;SDS011;3035;49.928;8.410;2022-11-20T06:48:19;33.93;;;16.07;;
6013;SDS011;3035;49.928;8.410;2022-11-20T06:50:48;31.80;;;14.60;;
6013;SDS011;3035;49.928;8.410;2022-11-20T06:53:16;37.03;;;15.83;;
6013;SDS011;3035;49.928;8.410;2022-11-20T06:55:44;32.93;;;16.30;;
6013;SDS011;3035;49.928;8.410;2022-11-20T06:58:13;29.27;;;16.30;;
6013;SDS011;3035;49.928;8.410;2022-11-20T07:00:40;29.30;;;14.40;;
6013;SDS011;3035;49.928;8.410;2022-11-20T07:03:09;35.87;;;16.53;;
6013;SDS011;3035;49.928;8.410;2022-11-20T07:05:37;36.90;;;16.27;;
6013;SDS011;3035;49.928;8.410;2022-11-20T07:08:05;32.83;;;15.80;;
6013;SDS011;3035;49.928;8.410;2022-11-20T07:10:34;36.57;;;17.47;;
6013;SDS011;3035;49.928;8.410;2022-11-20T07:13:03;33.00;;;15.13;;
6013;SDS011;3035;49.928;8.410;2022-11-20T07:15:32;35.00;;;15.43;;
6013;SDS011;3035;49.928;8.410;2022-11-20T07:18:00;34.90;;;17.67;;
6013;SDS011;3035;49.928;8.410;2022-11-20T07:20:28;37.40;;;19.17;;
6013;SDS011;3035;49.928;8.410;2022-11-20T07:22:57;38.90;;;18.73;;
6013;SDS011;3035;49.928;8.410;2022-11-20T07:25:25;36.03;;;19.03;;
6013;SDS011;3035;49.928;8.410;2022-11-20T07:27:57;35.17;;;16.20;;
6013;SDS011;3035;49.928;8.410;2022-11-20T07:30:26;33.47;;;17.27;;
6013;SDS011;3035;49.928;8.410;2022-11-20T07:32:54;29.20;;;14.20;;
6013;SDS011;3035;49.928;8.410;2022-11-20T07:35:23;36.53;;;16.20;;
6013;SDS011;3035;49.928;8.410;2022-11-20T07:37:50;35.57;;;16.80;;
6013;SDS011;3035;49.928;8.410;2022-11-20T07:40:19;30.40;;;15.73;;
6013;SDS011;3035;49.928;8.410;2022-11-20T07:42:49;36.40;;;18.60;;
6013;SDS011;3035;49.928;8.410;2022-11-20T07:45:18;33.10;;;16.63;;
6013;SDS011;3035;49.928;8.410;2022-11-20T07:47:46;29.73;;;16.00;;
6013;SDS011;3035;49.928;8.410;2022-11-20T07:50:15;40.60;;;17.90;;
6013;SDS011;3035;49.928;8.410;2022-11-20T07:52:42;32.13;;;15.00;;
6013;SDS011;3035;49.928;8.410;2022-11-20T07:55:11;37.60;;;17.33;;
6013;SDS011;3035;49.928;8.410;2022-11-20T07:57:40;32.27;;;16.30;;
6013;SDS011;3035;49.928;8.410;2022-11-20T08:00:09;31.50;;;15.37;;
6013;SDS011;3035;49.928;8.410;2022-11-20T08:02:39;38.83;;;17.40;;
6013;SDS011;3035;49.928;8.410;2022-11-20T08:05:08;44.00;;;21.17;;
6013;SDS011;3035;49.928;8.410;2022-11-20T08:07:37;31.50;;;16.20;;
6013;SDS011;3035;49.928;8.410;2022-11-20T08:10:05;25.83;;;14.40;;
6013;SDS011;3035;49.928;8.410;2022-11-20T08:12:35;30.07;;;15.47;;
6013;SDS011;3035;49.928;8.410;2022-11-20T08:15:10;26.53;;;14.70;;
6013;SDS011;3035;49.928;8.410;2022-11-20T08:17:39;30.90;;;15.20;;
6013;SDS011;3035;49.928;8.410;2022-11-20T08:20:08;34.43;;;15.93;;
6013;SDS011;3035;49.928;8.410;2022-11-20T08:22:37;32.37;;;15.57;;
6013;SDS011;3035;49.928;8.410;2022-11-20T08:25:06;36.13;;;14.70;;
6013;SDS011;3035;49.928;8.410;2022-11-20T08:27:35;32.80;;;15.17;;
6013;SDS011;3035;49.928;8.410;2022-11-20T08:30:04;30.30;;;15.93;;
6013;SDS011;3035;49.928;8.410;2022-11-20T08:32:34;29.33;;;15.20;;
6013;SDS011;3035;49.928;8.410;2022-11-20T08:35:03;34.00;;;16.73;;
6013;SDS011;3035;49.928;8.410;2022-11-20T08:37:32;28.37;;;15.60;;
6013;SDS011;3035;49.928;8.410;2022-11-20T08:40:01;32.77;;;15.87;;
6013;SDS011;3035;49.928;8.410;2022-11-20T08:42:31;29.10;;;15.30;;
6013;SDS011;3035;49.928;8.410;2022-11-20T08:44:59;27.10;;;14.20;;
6013;SDS011;3035;49.928;8.410;2022-11-20T08:47:28;36.63;;;18.10;;
6013;SDS011;3035;49.928;8.410;2022-11-20T08:49:56;42.40;;;15.97;;
6013;SDS011;3035;49.928;8.410;2022-11-20T08:52:25;35.27;;;17.07;;
6013;SDS011;3035;49.928;8.410;2022-11-20T08:54:55;32.20;;;16.70;;
6013;SDS011;3035;49.928;8.410;2022-11-20T08:57:24;31.60;;;15.57;;
6013;SDS011;3035;49.928;8.410;2022-11-20T08:59:53;29.77;;;15.57;;
6013;SDS011;3035;49.928;8.410;2022-11-20T09:02:22;32.47;;;16.10;;
6013;SDS011;3035;49.928;8.410;2022-11-20T09:04:50;33.50;;;16.17;;
6013;SDS011;3035;49.928;8.410;2022-11-20T09:07:18;35.03;;;17.23;;
6013;SDS011;3035;49.928;8.410;2022-11-20T09:09:47;32.93;;;16.33;;
6013;SDS011;3035;49.928;8.410;2022-11-20T09:12:15;33.60;;;17.27;;
6013;SDS011;3035;49.928;8.410;2022-11-20T09:14:43;31.10;;;16.37;;
6013;SDS011;3035;49.928;8.410;2022-11-20T09:17:12;26.37;;;14.37;;
6013;SDS011;3035;49.928;8.410;2022-11-20T09:19:40;37.37;;;17.20;;
6013;SDS011;3035;49.928;8.410;2022-11-20T09:22:09;33.43;;;16.37;;
6013;SDS011;3035;49.928;8.410;2022-11-20T09:24:37;38.07;;;17.70;;
6013;SDS011;3035;49.928;8.410;2022-11-20T09:27:05;32.17;;;16.67;;
6013;SDS011;3035;49.928;8.410;2022-11-20T09:29:34;31.83;;;16.40;;
6013;SDS011;3035;49.928;8.410;2022-11-20T09:32:02;30.83;;;15.20;;
6013;SDS011;3035;49.928;8.410;2022-11-20T09:34:32;33.70;;;15.40;;
6013;SDS011;3035;49.928;8.410;2022-11-20T09:37:00;31.30;;;16.40;;
6013;SDS011;3035;49.928;8.410;2022-11-20T09:39:28;26.63;;;15.40;;
6013;SDS011;3035;49.928;8.410;2022-11-20T09:42:04;38.33;;;16.30;;
6013;SDS011;3035;49.928;8.410;2022-11-20T09:44:38;38.20;;;16.43;;
6013;SDS011;3035;49.928;8.410;2022-11-20T09:47:11;35.60;;;17.27;;
6013;SDS011;3035;49.928;8.410;2022-11-20T09:49:53;30.20;;;17.03;;
6013;SDS011;3035;49.928;8.410;2022-11-20T09:52:26;33.00;;;15.80;;
6013;SDS011;3035;49.928;8.410;2022-11-20T09:55:01;34.77;;;16.83;;
6013;SDS011;3035;49.928;8.410;2022-11-20T09:57:34;33.27;;;17.20;;
6013;SDS011;3035;49.928;8.410;2022-11-20T09:59:59;31.27;;;15.67;;
6013;SDS011;3035;49.928;8.410;2022-11-20T10:02:29;33.90;;;15.47;;
6013;SDS011;3035;49.928;8.410;2022-11-20T10:07:52;32.77;;;16.90;;
6013;SDS011;3035;49.928;8.410;2022-11-20T10:13:24;29.53;;;16.30;;
6013;SDS011;3035;49.928;8.410;2022-11-20T10:15:55;31.97;;;15.17;;
6013;SDS011;3035;49.928;8.410;2022-11-20T10:21:33;30.73;;;15.63;;
6013;SDS011;3035;49.928;8.410;2022-11-20T10:27:03;30.27;;;16.50;;
6013;SDS011;3035;49.928;8.410;2022-11-20T10:29:33;27.57;;;13.93;;
6013;SDS011;3035;49.928;8.410;2022-11-20T10:32:03;26.03;;;14.00;;
6013;SDS011;3035;49.928;8.410;2022-11-20T10:34:34;32.10;;;14.93;;
6013;SDS011;3035;49.928;8.410;2022-11-20T10:37:02;34.07;;;16.30;;
6013;SDS011;3035;49.928;8.410;2022-11-20T10:39:34;30.13;;;15.43;;
6013;SDS011;3035;49.928;8.410;2022-11-20T10:42:03;23.73;;;13.93;;
6013;SDS011;3035;49.928;8.410;2022-11-20T10:44:33;26.97;;;14.67;;
6013;SDS011;3035;49.928;8.410;2022-11-20T10:47:11;26.33;;;13.43;;
6013;SDS011;3035;49.928;8.410;2022-11-20T10:49:46;28.23;;;14.10;;
6013;SDS011;3035;49.928;8.410;2022-11-20T10:52:20;24.93;;;12.13;;
6013;SDS011;3035;49.928;8.410;2022-11-20T10:55:12;29.20;;;14.90;;
6013;SDS011;3035;49.928;8.410;2022-11-20T10:57:53;29.67;;;15.53;;
6013;SDS011;3035;49.928;8.410;2022-11-20T11:00:39;25.30;;;14.63;;
6013;SDS011;3035;49.928;8.410;2022-11-20T11:03:19;23.47;;;14.20;;
6013;SDS011;3035;49.928;8.410;2022-11-20T11:05:48;32.60;;;16.17;;
6013;SDS011;3035;49.928;8.410;2022-11-20T11:08:19;27.73;;;15.03;;
6013;SDS011;3035;49.928;8.410;2022-11-20T11:10:54;29.20;;;15.70;;
6013;SDS011;3035;49.928;8.410;2022-11-20T11:13:26;29.20;;;15.07;;
6013;SDS011;3035;49.928;8.410;2022-11-20T11:15:54;26.87;;;15.20;;
6013;SDS011;3035;49.928;8.410;2022-11-20T11:18:24;21.07;;;12.43;;
6013;SDS011;3035;49.928;8.410;2022-11-20T11:20:52;31.67;;;15.50;;
6013;SDS011;3035;49.928;8.410;2022-11-20T11:26:07;21.00;;;11.60;;
6013;SDS011;3035;49.928;8.410;2022-11-20T11:28:34;22.43;;;12.00;;
6013;SDS011;3035;49.928;8.410;2022-11-20T11:31:02;22.20;;;13.00;;
6013;SDS011;3035;49.928;8.410;2022-11-20T11:33:31;24.00;;;12.43;;
6013;SDS011;3035;49.928;8.410;2022-11-20T11:36:02;22.00;;;11.40;;
6013;SDS011;3035;49.928;8.410;2022-11-20T11:38:30;19.37;;;12.10;;
6013;SDS011;3035;49.928;8.410;2022-11-20T11:41:03;22.57;;;12.63;;
6013;SDS011;3035;49.928;8.410;2022-11-20T11:43:32;19.10;;;10.40;;
6013;SDS011;3035;49.928;8.410;2022-11-20T11:46:13;19.80;;;11.53;;
6013;SDS011;3035;49.928;8.410;2022-11-20T11:48:54;23.20;;;13.20;;
6013;SDS011;3035;49.928;8.410;2022-11-20T11:51:26;23.30;;;14.07;;
6013;SDS011;3035;49.928;8.410;2022-11-20T11:53:54;25.23;;;12.60;;
6013;SDS011;3035;49.928;8.410;2022-11-20T11:56:23;26.40;;;13.47;;
6013;SDS011;3035;49.928;8.410;2022-11-20T11:58:52;19.90;;;11.70;;
6013;SDS011;3035;49.928;8.410;2022-11-20T12:01:32;25.30;;;13.30;;
6013;SDS011;3035;49.928;8.410;2022-11-20T12:06:45;24.73;;;13.20;;
6013;SDS011;3035;49.928;8.410;2022-11-20T12:09:12;28.40;;;14.30;;
6013;SDS011;3035;49.928;8.410;2022-11-20T12:11:45;22.73;;;14.00;;
6013;SDS011;3035;49.928;8.410;2022-11-20T12:14:20;23.03;;;13.20;;
6013;SDS011;3035;49.928;8.410;2022-11-20T12:16:48;19.50;;;12.47;;
6013;SDS011;3035;49.928;8.410;2022-11-20T12:19:16;20.37;;;11.67;;
6013;SDS011;3035;49.928;8.410;2022-11-20T12:21:49;22.97;;;12.40;;
6013;SDS011;3035;49.928;8.410;2022-11-20T12:24:39;22.70;;;12.03;;
6013;SDS011;3035;49.928;8.410;2022-11-20T12:27:23;15.20;;;9.80;;
6013;SDS011;3035;49.928;8.410;2022-11-20T12:30:11;19.00;;;10.83;;
6013;SDS011;3035;49.928;8.410;2022-11-20T12:32:46;16.17;;;10.73;;
6013;SDS011;3035;49.928;8.410;2022-11-20T12:41:41;17.60;;;10.60;;
6013;SDS011;3035;49.928;8.410;2022-11-20T12:44:33;18.17;;;10.73;;
6013;SDS011;3035;49.928;8.410;2022-11-20T12:47:14;17.70;;;11.03;;
6013;SDS011;3035;49.928;8.410;2022-11-20T12:49:47;21.57;;;11.87;;
6013;SDS011;3035;49.928;8.410;2022-11-20T12:55:09;21.53;;;12.33;;
6013;SDS011;3035;49.928;8.410;2022-11-20T13:00:19;19.30;;;11.97;;
6013;SDS011;3035;49.928;8.410;2022-11-20T13:05:37;17.13;;;10.57;;
6013;SDS011;3035;49.928;8.410;2022-11-20T13:10:56;19.10;;;10.93;;
6013;SDS011;3035;49.928;8.410;2022-11-20T13:13:45;19.53;;;10.00;;
6013;SDS011;3035;49.928;8.410;2022-11-20T13:16:33;17.37;;;10.73;;
6013;SDS011;3035;49.928;8.410;2022-11-20T13:19:17;23.17;;;11.37;;
6013;SDS011;3035;49.928;8.410;2022-11-20T13:21:47;23.17;;;12.40;;
6013;SDS011;3035;49.928;8.410;2022-11-20T13:24:26;19.93;;;11.60;;
6013;SDS011;3035;49.928;8.410;2022-11-20T13:27:03;22.63;;;13.43;;
6013;SDS011;3035;49.928;8.410;2022-11-20T13:29:31;22.53;;;11.90;;
6013;SDS011;3035;49.928;8.410;2022-11-20T13:34:39;27.47;;;14.50;;
6013;SDS011;3035;49.928;8.410;2022-11-20T13:37:23;20.90;;;12.40;;
6013;SDS011;3035;49.928;8.410;2022-11-20T13:39:36;18.40;;;9.63;;
6013;SDS011;3035;49.928;8.410;2022-11-20T13:44:53;20.67;;;11.30;;
6013;SDS011;3035;49.928;8.410;2022-11-20T13:47:22;20.83;;;11.50;;
6013;SDS011;3035;49.928;8.410;2022-11-20T13:49:51;20.13;;;11.57;;
6013;SDS011;3035;49.928;8.410;2022-11-20T13:55:24;18.60;;;10.83;;
6013;SDS011;3035;49.928;8.410;2022-11-20T13:58:02;21.33;;;11.23;;
6013;SDS011;3035;49.928;8.410;2022-11-20T14:00:31;17.47;;;10.47;;
6013;SDS011;3035;49.928;8.410;2022-11-20T14:03:02;17.63;;;9.63;;
6013;SDS011;3035;49.928;8.410;2022-11-20T14:05:40;25.17;;;10.40;;
6013;SDS011;3035;49.928;8.410;2022-11-20T14:08:13;18.97;;;10.40;;
6013;SDS011;3035;49.928;8.410;2022-11-20T14:10:37;18.37;;;11.50;;
6013;SDS011;3035;49.928;8.410;2022-11-20T14:13:10;19.57;;;11.00;;
6013;SDS011;3035;49.928;8.410;2022-11-20T14:15:38;22.30;;;11.83;;
6013;SDS011;3035;49.928;8.410;2022-11-20T14:18:13;20.50;;;12.13;;
6013;SDS011;3035;49.928;8.410;2022-11-20T14:20:40;19.37;;;11.00;;
6013;SDS011;3035;49.928;8.410;2022-11-20T14:23:09;22.30;;;12.03;;
6013;SDS011;3035;49.928;8.410;2022-11-20T14:25:37;24.47;;;13.27;;
6013;SDS011;3035;49.928;8.410;2022-11-20T14:28:06;20.70;;;11.77;;
6013;SDS011;3035;49.928;8.410;2022-11-20T14:30:38;22.90;;;12.60;;
6013;SDS011;3035;49.928;8.410;2022-11-20T14:33:11;28.73;;;14.50;;
6013;SDS011;3035;49.928;8.410;2022-11-20T14:35:40;25.17;;;14.33;;
6013;SDS011;3035;49.928;8.410;2022-11-20T14:38:13;27.07;;;14.60;;
6013;SDS011;3035;49.928;8.410;2022-11-20T14:40:40;27.00;;;14.93;;
6013;SDS011;3035;49.928;8.410;2022-11-20T14:43:17;27.67;;;14.40;;
6013;SDS011;3035;49.928;8.410;2022-11-20T14:45:57;25.20;;;14.10;;
6013;SDS011;3035;49.928;8.410;2022-11-20T14:48:31;25.30;;;12.47;;
6013;SDS011;3035;49.928;8.410;2022-11-20T14:51:04;25.27;;;12.57;;
6013;SDS011;3035;49.928;8.410;2022-11-20T14:53:32;29.40;;;15.47;;
6013;SDS011;3035;49.928;8.410;2022-11-20T14:56:01;26.17;;;14.77;;
6013;SDS011;3035;49.928;8.410;2022-11-20T14:58:30;29.83;;;14.23;;
6013;SDS011;3035;49.928;8.410;2022-11-20T15:00:58;25.27;;;14.47;;
6013;SDS011;3035;49.928;8.410;2022-11-20T15:03:32;30.13;;;15.77;;
6013;SDS011;3035;49.928;8.410;2022-11-20T15:06:03;27.90;;;15.50;;
6013;SDS011;3035;49.928;8.410;2022-11-20T15:08:31;25.50;;;14.83;;
6013;SDS011;3035;49.928;8.410;2022-11-20T15:10:59;26.93;;;16.20;;
6013;SDS011;3035;49.928;8.410;2022-11-20T15:13:31;25.27;;;14.17;;
6013;SDS011;3035;49.928;8.410;2022-11-20T15:16:00;26.17;;;14.30;;
6013;SDS011;3035;49.928;8.410;2022-11-20T15:21:12;26.23;;;14.50;;
6013;SDS011;3035;49.928;8.410;2022-11-20T15:23:41;26.33;;;14.37;;
6013;SDS011;3035;49.928;8.410;2022-11-20T15:26:09;27.47;;;13.93;;
6013;SDS011;3035;49.928;8.410;2022-11-20T15:28:39;25.43;;;14.77;;
6013;SDS011;3035;49.928;8.410;2022-11-20T15:31:12;24.67;;;12.50;;
6013;SDS011;3035;49.928;8.410;2022-11-20T15:33:40;25.23;;;13.83;;
6013;SDS011;3035;49.928;8.410;2022-11-20T15:36:09;20.27;;;12.17;;
6013;SDS011;3035;49.928;8.410;2022-11-20T15:38:37;28.10;;;13.03;;
6013;SDS011;3035;49.928;8.410;2022-11-20T15:41:06;24.83;;;13.40;;
6013;SDS011;3035;49.928;8.410;2022-11-20T15:43:35;25.23;;;13.80;;
6013;SDS011;3035;49.928;8.410;2022-11-20T15:46:05;25.83;;;14.37;;
6013;SDS011;3035;49.928;8.410;2022-11-20T15:48:37;26.60;;;13.70;;
6013;SDS011;3035;49.928;8.410;2022-11-20T15:51:07;27.40;;;14.87;;
6013;SDS011;3035;49.928;8.410;2022-11-20T15:53:46;34.50;;;16.17;;